createdAt,value
2022-08-10T00:01:54.328Z,102158.00
2022-08-10T00:04:24.719Z,102151.84
2022-08-10T00:06:53.445Z,102156.19
2022-08-10T00:09:20.716Z,102144.97
2022-08-10T00:11:47.473Z,102148.94
2022-08-10T00:14:14.238Z,102144.44
2022-08-10T00:16:40.945Z,102150.78
2022-08-10T00:19:07.593Z,102141.09
2022-08-10T00:21:34.345Z,102137.03
2022-08-10T00:24:01.076Z,102143.47
2022-08-10T00:27:49.889Z,102143.00
2022-08-10T00:29:14.483Z,102134.06
2022-08-10T00:31:58.615Z,102136.50
2022-08-10T00:34:30.697Z,102136.50
2022-08-10T00:36:58.154Z,102133.69
2022-08-10T00:39:26.327Z,102136.44
2022-08-10T00:42:06.627Z,102140.28
2022-08-10T00:44:40.060Z,102132.59
2022-08-10T00:47:17.455Z,102135.41
2022-08-10T00:49:54.733Z,102129.81
2022-08-10T00:52:22.144Z,102130.56
2022-08-10T00:54:49.021Z,102133.59
2022-08-10T00:57:18.590Z,102134.34
2022-08-10T00:59:57.863Z,102132.72
2022-08-10T01:02:32.625Z,102128.75
2022-08-10T01:05:03.079Z,102130.47
2022-08-10T01:07:38.039Z,102122.59
2022-08-10T01:10:28.434Z,102133.81
2022-08-10T01:13:16.829Z,102129.00
2022-08-10T01:16:05.410Z,102130.63
2022-08-10T01:18:44.433Z,102121.88
2022-08-10T01:21:34.368Z,102125.00
2022-08-10T01:24:20.441Z,102125.41
2022-08-10T01:27:07.279Z,102123.03
2022-08-10T01:30:03.130Z,102119.13
2022-08-10T01:32:42.285Z,102118.31
2022-08-10T01:35:22.152Z,102121.88
2022-08-10T01:37:58.986Z,102120.94
2022-08-10T01:40:28.401Z,102110.47
2022-08-10T01:42:59.732Z,102106.41
2022-08-10T01:45:45.351Z,102114.00
2022-08-10T01:48:32.016Z,102108.66
2022-08-10T01:51:14.565Z,102112.66
2022-08-10T01:53:52.092Z,102111.28
2022-08-10T01:56:22.460Z,102110.84
2022-08-10T01:58:52.612Z,102114.09
2022-08-10T02:01:23.917Z,102105.97
2022-08-10T02:04:05.053Z,102109.03
2022-08-10T02:06:36.808Z,102120.69
2022-08-10T02:09:07.127Z,102107.84
2022-08-10T02:12:06.252Z,102112.94
2022-08-10T02:14:33.940Z,102119.59
2022-08-10T02:17:07.950Z,102120.78
2022-08-10T02:19:38.457Z,102125.19
2022-08-10T02:22:36.729Z,102131.25
2022-08-10T02:24:57.672Z,102119.84
2022-08-10T02:27:26.873Z,102122.66
2022-08-10T02:29:54.864Z,102122.31
2022-08-10T02:32:38.294Z,102116.16
2022-08-10T02:35:13.202Z,102113.38
2022-08-10T02:37:51.354Z,102117.56
2022-08-10T02:45:16.175Z,102116.63
2022-08-10T02:45:24.706Z,102112.13
2022-08-10T02:46:05.239Z,102109.13
2022-08-10T02:48:42.373Z,102093.41
2022-08-10T02:51:16.227Z,102103.81
2022-08-10T02:53:54.632Z,102106.94
2022-08-10T02:56:35.684Z,102110.94
2022-08-10T02:59:11.817Z,102105.66
2022-08-10T03:01:44.528Z,102118.84
2022-08-10T03:04:57.859Z,102111.63
2022-08-10T03:07:12.289Z,102117.69
2022-08-10T03:09:41.248Z,102113.63
2022-08-10T03:12:35.110Z,102118.50
2022-08-10T03:15:00.007Z,102121.19
2022-08-10T03:17:27.808Z,102117.56
2022-08-10T03:20:33.957Z,102121.91
2022-08-10T03:22:44.828Z,102120.19
2022-08-10T03:25:13.820Z,102118.22
2022-08-10T03:27:42.710Z,102120.06
2022-08-10T03:30:28.171Z,102111.94
2022-08-10T03:32:58.992Z,102114.28
2022-08-10T03:35:26.407Z,102118.25
2022-08-10T03:37:59.222Z,102118.50
2022-08-10T03:40:45.454Z,102118.03
2022-08-10T03:43:19.344Z,102113.97
2022-08-10T03:45:55.345Z,102109.09
2022-08-10T03:48:32.248Z,102105.94
2022-08-10T03:51:12.083Z,102107.38
2022-08-10T03:54:03.518Z,102105.38
2022-08-10T03:56:28.562Z,102115.31
2022-08-10T03:58:58.228Z,102108.78
2022-08-10T04:02:41.930Z,102103.88
2022-08-10T04:04:15.472Z,102098.22
2022-08-10T04:06:45.135Z,102092.88
2022-08-10T04:09:11.807Z,102107.78
2022-08-10T04:11:40.771Z,102102.91
2022-08-10T04:14:38.370Z,102100.44
2022-08-10T04:16:55.173Z,102103.72
2022-08-10T04:19:23.202Z,102098.03
2022-08-10T04:22:00.127Z,102098.38
2022-08-10T04:24:31.927Z,102100.69
2022-08-10T04:27:02.476Z,102097.41
2022-08-10T04:29:29.426Z,102092.06
2022-08-10T04:31:56.088Z,102095.69
2022-08-10T04:34:26.154Z,102099.50
2022-08-10T04:36:58.002Z,102093.00
2022-08-10T04:39:25.126Z,102099.31
2022-08-10T04:41:52.266Z,102091.97
2022-08-10T04:44:19.011Z,102093.81
2022-08-10T04:46:56.217Z,102091.03
2022-08-10T04:49:55.549Z,102088.59
2022-08-10T04:52:12.463Z,102096.53
2022-08-10T04:54:39.119Z,102102.13
2022-08-10T04:57:06.430Z,102101.19
2022-08-10T04:59:34.167Z,102108.28
2022-08-10T05:02:29.770Z,102100.25
2022-08-10T05:04:47.518Z,102093.03
2022-08-10T05:07:18.455Z,102096.53
2022-08-10T05:10:03.209Z,102090.47
2022-08-10T05:12:38.839Z,102096.75
2022-08-10T05:15:13.198Z,102093.63
2022-08-10T05:18:08.134Z,102085.38
2022-08-10T05:20:29.143Z,102091.88
2022-08-10T05:22:55.777Z,102085.84
2022-08-10T05:25:22.433Z,102089.91
2022-08-10T05:27:49.248Z,102094.66
2022-08-10T05:30:18.803Z,102090.72
2022-08-10T05:32:56.411Z,102100.72
2022-08-10T05:35:27.357Z,102087.94
2022-08-10T05:38:13.074Z,102095.50
2022-08-10T05:40:47.465Z,102090.59
2022-08-10T05:43:19.400Z,102090.25
2022-08-10T05:46:17.341Z,102093.41
2022-08-10T05:48:55.715Z,102093.03
2022-08-10T05:51:22.578Z,102087.69
2022-08-10T05:54:01.105Z,102090.50
2022-08-10T05:56:56.843Z,102082.13
2022-08-10T06:00:33.503Z,102084.91
2022-08-10T06:02:31.283Z,102084.19
2022-08-10T06:04:58.664Z,102078.84
2022-08-10T06:07:30.058Z,102087.00
2022-08-10T06:10:00.197Z,102084.66
2022-08-10T06:12:36.427Z,102094.69
2022-08-10T06:15:21.721Z,102093.25
2022-08-10T06:18:05.089Z,102094.19
2022-08-10T06:20:35.969Z,102100.69
2022-08-10T06:23:04.427Z,102103.03
2022-08-10T06:26:08.574Z,102102.78
2022-08-10T06:28:19.963Z,102099.06
2022-08-10T06:30:49.369Z,102094.75
2022-08-10T06:33:18.735Z,102106.03
2022-08-10T06:35:48.499Z,102098.22
2022-08-10T06:38:16.873Z,102102.34
2022-08-10T06:40:47.087Z,102103.50
2022-08-10T06:43:17.120Z,102102.78
2022-08-10T06:46:07.814Z,102103.81
2022-08-10T06:48:45.627Z,102110.78
2022-08-10T06:51:33.774Z,102104.72
2022-08-10T06:54:04.707Z,102112.50
2022-08-10T06:56:46.848Z,102102.66
2022-08-10T06:59:30.567Z,102100.81
2022-08-10T07:02:04.900Z,102107.78
2022-08-10T07:04:46.493Z,102099.03
2022-08-10T07:07:19.632Z,102101.94
2022-08-10T07:09:49.328Z,102088.13
2022-08-10T07:12:19.687Z,102092.31
2022-08-10T07:14:48.944Z,102093.66
2022-08-10T07:17:26.070Z,102089.81
2022-08-10T07:19:55.945Z,102092.69
2022-08-10T07:23:01.649Z,102083.31
2022-08-10T07:25:17.277Z,102086.22
2022-08-10T07:27:59.895Z,102089.13
2022-08-10T07:30:36.009Z,102080.53
2022-08-10T07:33:04.807Z,102082.28
2022-08-10T07:35:42.322Z,102087.16
2022-08-10T07:38:17.826Z,102090.25
2022-08-10T07:40:45.634Z,102088.06
2022-08-10T07:43:13.679Z,102098.38
2022-08-10T07:45:40.832Z,102095.88
2022-08-10T07:48:13.826Z,102105.84
2022-08-10T07:50:42.608Z,102103.78
2022-08-10T07:53:13.568Z,102096.47
2022-08-10T07:56:02.073Z,102104.50
2022-08-10T07:58:34.221Z,102105.16
2022-08-10T08:01:01.714Z,102099.84
2022-08-10T08:03:30.907Z,102095.41
2022-08-10T08:06:04.985Z,102101.34
2022-08-10T08:08:37.988Z,102098.03
2022-08-10T08:11:06.291Z,102097.94
2022-08-10T08:13:34.676Z,102101.69
2022-08-10T08:16:19.418Z,102093.56
2022-08-10T08:18:58.158Z,102086.72
2022-08-10T08:24:10.071Z,102092.53
2022-08-10T08:24:33.677Z,102093.16
2022-08-10T08:27:05.719Z,102101.38
2022-08-10T08:29:34.136Z,102097.59
2022-08-10T08:32:03.844Z,102100.34
2022-08-10T08:34:32.728Z,102091.69
2022-08-10T08:37:01.229Z,102094.44
2022-08-10T08:39:28.961Z,102088.09
2022-08-10T08:42:26.488Z,102083.81
2022-08-10T08:45:15.804Z,102088.16
2022-08-10T08:48:19.484Z,102088.34
2022-08-10T08:50:57.144Z,102086.53
2022-08-10T08:54:02.899Z,102082.13
2022-08-10T08:56:55.364Z,102080.63
2022-08-10T08:59:40.474Z,102068.22
2022-08-10T09:02:33.916Z,102079.19
2022-08-10T09:05:16.823Z,102066.47
2022-08-10T09:08:14.591Z,102063.03
2022-08-10T09:10:50.582Z,102060.31
2022-08-10T09:13:40.442Z,102061.53
2022-08-10T09:16:44.216Z,102059.69
2022-08-10T09:19:35.170Z,102064.00
2022-08-10T09:22:37.370Z,102052.59
2022-08-10T09:25:18.884Z,102062.38
2022-08-10T09:27:59.871Z,102057.91
2022-08-10T09:30:38.511Z,102056.66
2022-08-10T09:36:22.105Z,102052.50
2022-08-10T09:36:33.025Z,102054.69
2022-08-10T09:40:12.229Z,102045.97
2022-08-10T09:42:16.163Z,102032.22
2022-08-10T09:44:57.479Z,102038.97
2022-08-10T09:47:58.615Z,102046.97
2022-08-10T09:51:22.849Z,102039.72
2022-08-10T09:53:56.243Z,102037.19
2022-08-10T09:56:41.003Z,102037.72
2022-08-10T10:00:00.496Z,102031.81
2022-08-10T10:02:31.318Z,102038.34
2022-08-10T10:05:24.851Z,102039.06
2022-08-10T10:08:01.189Z,102046.78
2022-08-10T10:10:41.150Z,102042.31
2022-08-10T10:14:01.464Z,102037.38
2022-08-10T10:16:35.933Z,102041.97
2022-08-10T10:19:24.805Z,102030.84
2022-08-10T10:22:32.680Z,102028.06
2022-08-10T10:25:22.237Z,102020.88
2022-08-10T10:28:05.916Z,102032.38
2022-08-10T10:30:39.075Z,102025.38
2022-08-10T10:33:33.048Z,102019.63
2022-08-10T10:36:02.088Z,102022.81
2022-08-10T10:38:40.265Z,102017.19
2022-08-10T10:41:57.327Z,102010.88
2022-08-10T10:44:46.581Z,102002.50
2022-08-10T10:47:46.364Z,101997.31
2022-08-10T10:50:19.659Z,101996.44
2022-08-10T10:52:55.578Z,102004.13
2022-08-10T10:56:14.714Z,101995.09
2022-08-10T10:59:53.501Z,101997.34
2022-08-10T11:02:46.835Z,101984.81
2022-08-10T11:05:48.838Z,101975.50
2022-08-10T11:08:36.376Z,101982.78
2022-08-10T11:11:20.466Z,101966.25
2022-08-10T11:14:29.169Z,101967.91
2022-08-10T11:17:23.212Z,101968.75
2022-08-10T11:20:17.989Z,101961.66
2022-08-10T11:23:14.776Z,101955.00
2022-08-10T11:25:44.835Z,101959.31
2022-08-10T11:28:36.836Z,101956.44
2022-08-10T11:31:19.764Z,101955.31
2022-08-10T11:34:48.474Z,101960.28
2022-08-10T11:38:31.958Z,101964.78
2022-08-10T11:40:57.028Z,101956.09
2022-08-10T11:43:28.919Z,101958.69
2022-08-10T11:46:40.552Z,101956.25
2022-08-10T11:49:14.016Z,101947.81
2022-08-10T11:51:58.071Z,101950.66
2022-08-10T11:54:33.627Z,101940.00
2022-08-10T11:57:02.968Z,101944.16
2022-08-10T11:59:57.922Z,101951.56
2022-08-10T12:02:34.219Z,101946.84
2022-08-10T12:05:07.735Z,101943.22
2022-08-10T12:09:24.013Z,101957.44
2022-08-10T12:10:27.784Z,101957.56
2022-08-10T12:13:18.926Z,101952.72
2022-08-10T12:16:05.581Z,101958.41
2022-08-10T12:19:04.470Z,101961.72
2022-08-10T12:21:39.212Z,101957.81
2022-08-10T12:24:33.873Z,101961.25
2022-08-10T12:27:17.020Z,101956.81
2022-08-10T12:29:49.085Z,101954.03
2022-08-10T12:32:31.032Z,101954.53
2022-08-10T12:35:00.734Z,101944.53
2022-08-10T12:37:31.677Z,101950.75
2022-08-10T12:40:35.055Z,101947.59
2022-08-10T12:44:03.923Z,101948.84
2022-08-10T12:46:06.830Z,101947.28
2022-08-10T12:48:50.378Z,101940.34
2022-08-10T12:51:46.871Z,101938.31
2022-08-10T12:54:22.657Z,101948.84
2022-08-10T12:57:03.708Z,101944.03
2022-08-10T12:59:32.320Z,101939.63
2022-08-10T13:02:09.474Z,101945.59
2022-08-10T13:04:40.374Z,101948.28
2022-08-10T13:07:09.219Z,101935.63
2022-08-10T13:09:56.409Z,101937.25
2022-08-10T13:12:37.912Z,101932.34
2022-08-10T13:15:50.009Z,101934.53
2022-08-10T13:18:26.295Z,101919.75
2022-08-10T13:20:55.990Z,101918.81
2022-08-10T13:23:27.116Z,101915.00
2022-08-10T13:25:56.999Z,101915.94
2022-08-10T13:28:39.964Z,101912.59
2022-08-10T13:31:11.471Z,101905.22
2022-08-10T13:34:36.543Z,101910.53
2022-08-10T13:36:40.396Z,101907.09
2022-08-10T13:39:12.239Z,101903.38
2022-08-10T13:41:42.507Z,101901.31
2022-08-10T13:44:12.985Z,101898.63
2022-08-10T13:46:42.368Z,101890.25
2022-08-10T13:49:11.254Z,101883.84
2022-08-10T13:51:54.598Z,101887.94
2022-08-10T13:54:38.850Z,101894.47
2022-08-10T13:57:06.851Z,101888.56
2022-08-10T14:00:34.291Z,101890.00
2022-08-10T14:02:36.617Z,101882.38
2022-08-10T14:05:05.840Z,101884.41
2022-08-10T14:07:37.772Z,101878.50
2022-08-10T14:10:13.625Z,101881.41
2022-08-10T14:12:46.438Z,101874.84
2022-08-10T14:15:29.366Z,101876.69
2022-08-10T14:17:58.920Z,101884.22
2022-08-10T14:20:44.705Z,101874.13
2022-08-10T14:23:15.107Z,101870.59
2022-08-10T14:25:59.307Z,101859.81
2022-08-10T14:28:42.813Z,101865.22
2022-08-10T14:31:19.802Z,101876.66
2022-08-10T14:33:54.643Z,101873.28
2022-08-10T14:36:42.581Z,101867.81
2022-08-10T14:39:14.878Z,101870.47
2022-08-10T14:42:01.083Z,101867.63
2022-08-10T14:44:31.438Z,101866.13
2022-08-10T14:47:20.102Z,101857.03
2022-08-10T14:49:57.081Z,101855.03
2022-08-10T14:52:27.632Z,101860.53
2022-08-10T14:54:56.659Z,101853.25
2022-08-10T14:57:24.595Z,101847.53
2022-08-10T15:00:29.316Z,101849.28
2022-08-10T15:03:03.685Z,101856.78
2022-08-10T15:05:41.692Z,101857.56
2022-08-10T15:08:10.039Z,101848.13
2022-08-10T15:10:38.473Z,101851.00
2022-08-10T15:13:33.873Z,101848.94
2022-08-10T15:16:12.491Z,101842.19
2022-08-10T15:18:57.964Z,101840.84
2022-08-10T15:21:42.642Z,101843.16
2022-08-10T15:24:15.542Z,101843.53
2022-08-10T15:26:57.508Z,101842.53
2022-08-10T15:29:26.568Z,101828.72
2022-08-10T15:32:12.559Z,101844.56
2022-08-10T15:34:58.693Z,101837.44
2022-08-10T15:37:37.053Z,101828.69
2022-08-10T15:40:31.088Z,101820.22
2022-08-10T15:43:20.272Z,101819.41
2022-08-10T15:46:11.837Z,101820.56
2022-08-10T15:48:50.061Z,101832.34
2022-08-10T15:51:23.028Z,101820.97
2022-08-10T15:54:06.739Z,101814.97
2022-08-10T15:56:51.319Z,101814.75
2022-08-10T15:59:31.185Z,101812.06
2022-08-10T16:02:16.243Z,101804.72
2022-08-10T16:05:06.508Z,101809.31
2022-08-10T16:08:02.718Z,101809.53
2022-08-10T16:10:39.957Z,101806.00
2022-08-10T16:13:50.932Z,101812.31
2022-08-10T16:15:59.025Z,101805.78
2022-08-10T16:18:31.694Z,101811.34
2022-08-10T16:21:01.214Z,101799.84
2022-08-10T16:23:35.022Z,101799.75
2022-08-10T16:26:25.451Z,101797.28
2022-08-10T16:29:03.933Z,101801.63
2022-08-10T16:31:32.776Z,101802.44
2022-08-10T16:34:03.305Z,101806.00
2022-08-10T16:36:41.972Z,101805.06
2022-08-10T16:39:17.987Z,101800.38
2022-08-10T16:42:20.599Z,101790.75
2022-08-10T16:44:54.806Z,101793.78
2022-08-10T16:47:27.348Z,101785.41
2022-08-10T16:49:58.292Z,101779.53
2022-08-10T16:52:27.323Z,101785.47
2022-08-10T16:55:23.739Z,101786.28
2022-08-10T16:57:55.046Z,101790.09
2022-08-10T17:00:23.356Z,101791.81
2022-08-10T17:02:54.766Z,101784.31
2022-08-10T17:06:01.386Z,101786.13
2022-08-10T17:08:14.664Z,101787.44
2022-08-10T17:10:42.705Z,101781.31
2022-08-10T17:13:11.839Z,101783.22
2022-08-10T17:15:47.084Z,101784.13
2022-08-10T17:18:27.679Z,101785.84
2022-08-10T17:21:00.065Z,101774.34
2022-08-10T17:23:33.782Z,101770.47
2022-08-10T17:26:12.457Z,101765.00
2022-08-10T17:28:49.395Z,101767.69
2022-08-10T17:31:54.815Z,101769.91
2022-08-10T17:34:29.388Z,101760.63
2022-08-10T17:37:04.389Z,101760.38
2022-08-10T17:39:41.130Z,101755.19
2022-08-10T17:42:08.740Z,101762.81
2022-08-10T17:44:40.902Z,101764.13
2022-08-10T17:47:10.611Z,101753.13
2022-08-10T17:49:39.989Z,101749.91
2022-08-10T17:52:10.632Z,101759.44
2022-08-10T17:54:45.739Z,101751.25
2022-08-10T17:57:18.850Z,101746.00
2022-08-10T17:59:46.910Z,101750.72
2022-08-10T18:02:18.384Z,101759.66
2022-08-10T18:04:51.980Z,101758.69
2022-08-10T18:07:22.967Z,101762.22
2022-08-10T18:09:55.041Z,101758.47
2022-08-10T18:12:39.416Z,101756.34
2022-08-10T18:15:13.574Z,101750.09
2022-08-10T18:17:44.852Z,101756.47
2022-08-10T18:20:13.133Z,101745.91
2022-08-10T18:22:45.359Z,101750.09
2022-08-10T18:25:26.569Z,101757.59
2022-08-10T18:28:04.585Z,101750.84
2022-08-10T18:30:36.276Z,101750.59
2022-08-10T18:33:04.601Z,101759.19
2022-08-10T18:35:34.732Z,101754.66
2022-08-10T18:38:03.960Z,101752.91
2022-08-10T18:40:35.615Z,101752.00
2022-08-10T18:44:05.996Z,101742.47
2022-08-10T18:45:58.857Z,101742.59
2022-08-10T18:48:34.392Z,101745.56
2022-08-10T18:51:05.943Z,101750.31
2022-08-10T18:53:48.226Z,101746.13
2022-08-10T18:56:17.755Z,101741.38
2022-08-10T18:59:22.004Z,101749.13
2022-08-10T19:02:10.428Z,101745.22
2022-08-10T19:04:42.871Z,101748.94
2022-08-10T19:07:24.882Z,101754.22
2022-08-10T19:10:12.455Z,101757.53
2022-08-10T19:12:49.020Z,101743.03
2022-08-10T19:15:29.839Z,101750.34
2022-08-10T19:18:11.963Z,101751.19
2022-08-10T19:20:50.614Z,101746.38
2022-08-10T19:23:37.514Z,101751.22
2022-08-10T19:26:41.837Z,101751.59
2022-08-10T19:30:08.639Z,101745.59
2022-08-10T19:32:41.476Z,101751.72
2022-08-10T19:35:30.036Z,101746.47
2022-08-10T19:38:00.709Z,101741.25
2022-08-10T19:40:43.543Z,101744.09
2022-08-10T19:44:00.251Z,101744.91
2022-08-10T19:46:41.031Z,101742.50
2022-08-10T19:49:18.616Z,101761.97
2022-08-10T19:52:10.895Z,101751.47
2022-08-10T19:54:41.661Z,101753.13
2022-08-10T19:57:13.596Z,101752.75
2022-08-10T20:00:15.877Z,101762.84
2022-08-10T20:02:59.709Z,101761.63
2022-08-10T20:05:30.098Z,101755.59
2022-08-10T20:08:12.880Z,101755.19
2022-08-10T20:11:01.171Z,101749.97
2022-08-10T20:13:45.758Z,101745.13
2022-08-10T20:16:21.068Z,101753.63
2022-08-10T20:18:51.569Z,101749.19
2022-08-10T20:21:43.346Z,101757.25
2022-08-10T20:24:11.555Z,101749.19
2022-08-10T20:26:50.104Z,101745.13
2022-08-10T20:29:56.909Z,101757.66
2022-08-10T20:32:17.594Z,101749.59
2022-08-10T20:34:49.445Z,101745.94
2022-08-10T20:38:02.674Z,101756.41
2022-08-10T20:40:34.424Z,101755.19
2022-08-10T20:43:00.987Z,101758.03
2022-08-10T20:45:51.923Z,101768.88
2022-08-10T20:48:36.355Z,101772.53
2022-08-10T20:51:06.879Z,101768.47
2022-08-10T20:53:39.276Z,101771.69
2022-08-10T20:56:10.298Z,101765.22
2022-08-10T20:58:55.198Z,101772.50
2022-08-10T21:01:23.046Z,101770.03
2022-08-10T21:04:18.932Z,101764.00
2022-08-10T21:07:06.448Z,101755.53
2022-08-10T21:10:10.772Z,101765.56
2022-08-10T21:12:44.211Z,101767.59
2022-08-10T21:15:46.067Z,101776.44
2022-08-10T21:18:43.971Z,101768.38
2022-08-10T21:21:44.737Z,101777.94
2022-08-10T21:24:35.793Z,101773.50
2022-08-10T21:27:33.787Z,101771.47
2022-08-10T21:30:30.658Z,101774.69
2022-08-10T21:33:02.651Z,101771.41
2022-08-10T21:38:34.120Z,101769.72
2022-08-10T21:41:57.612Z,101772.13
2022-08-10T21:44:49.961Z,101768.47
2022-08-10T21:48:16.798Z,101774.91
2022-08-10T21:51:14.647Z,101770.81
2022-08-10T21:54:16.025Z,101775.63
2022-08-10T21:58:00.265Z,101773.19
2022-08-10T22:00:45.815Z,101765.84
2022-08-10T22:03:39.918Z,101779.09
2022-08-10T22:06:28.156Z,101773.47
2022-08-10T22:09:24.709Z,101768.19
2022-08-10T22:12:25.015Z,101766.94
2022-08-10T22:16:03.161Z,101770.16
2022-08-10T22:18:35.826Z,101777.38
2022-08-10T22:21:45.920Z,101772.47
2022-08-10T22:24:41.457Z,101774.03
2022-08-10T22:27:50.665Z,101769.13
2022-08-10T22:30:37.974Z,101770.69
2022-08-10T22:31:27.736Z,101768.97
2022-08-10T22:33:35.412Z,101763.44
2022-08-10T22:36:54.080Z,101765.44
2022-08-10T22:40:12.102Z,101764.56
2022-08-10T22:43:09.843Z,101768.22
2022-08-10T22:46:03.593Z,101758.50
2022-08-10T22:48:51.646Z,101755.31
2022-08-10T22:51:23.524Z,101758.03
2022-08-10T22:54:30.481Z,101752.81
2022-08-10T22:57:21.942Z,101758.41
2022-08-10T22:59:50.004Z,101753.53
2022-08-10T23:02:33.808Z,101753.13
2022-08-10T23:05:06.673Z,101756.25
2022-08-10T23:07:36.936Z,101754.22
2022-08-10T23:10:13.099Z,101759.00
2022-08-10T23:12:48.192Z,101752.56
2022-08-10T23:15:44.030Z,101746.94
2022-08-10T23:18:34.668Z,101742.03
2022-08-10T23:21:02.515Z,101739.56
2022-08-10T23:23:40.141Z,101748.41
2022-08-10T23:26:09.036Z,101737.53
2022-08-10T23:28:58.891Z,101743.50
2022-08-10T23:32:01.073Z,101748.28
2022-08-10T23:34:22.987Z,101743.38
2022-08-10T23:36:51.984Z,101746.59
2022-08-10T23:39:25.871Z,101737.28
2022-08-10T23:42:06.357Z,101742.88
2022-08-10T23:44:37.877Z,101743.22
2022-08-10T23:47:05.601Z,101750.44
2022-08-10T23:49:37.425Z,101746.81
2022-08-10T23:52:10.133Z,101736.69
2022-08-10T23:54:44.752Z,101738.72
2022-08-10T23:57:16.349Z,101741.47
2022-08-10T23:59:48.822Z,101738.19
